createdAt,value
2018-09-20T00:01:49.916Z,19.30
2018-09-20T00:04:54.218Z,16.33
2018-09-20T00:08:04.839Z,17.33
2018-09-20T00:11:09.643Z,17.67
2018-09-20T00:14:14.657Z,17.73
2018-09-20T00:17:18.984Z,17.37
2018-09-20T00:20:23.885Z,16.83
2018-09-20T00:23:28.365Z,16.60
2018-09-20T00:26:32.699Z,16.30
2018-09-20T00:29:37.006Z,19.00
2018-09-20T00:32:41.189Z,16.73
2018-09-20T00:35:45.523Z,15.23
2018-09-20T00:38:49.887Z,15.53
2018-09-20T00:41:54.249Z,16.87
2018-09-20T00:44:58.499Z,16.97
2018-09-20T00:48:02.851Z,16.80
2018-09-20T00:51:07.167Z,15.73
2018-09-20T00:54:11.631Z,16.83
2018-09-20T00:57:15.660Z,16.27
2018-09-20T01:00:19.812Z,17.13
2018-09-20T01:03:24.130Z,16.50
2018-09-20T01:06:28.314Z,16.00
2018-09-20T01:09:32.562Z,15.47
2018-09-20T01:12:36.784Z,15.83
2018-09-20T01:15:41.075Z,17.47
2018-09-20T01:18:45.415Z,16.60
2018-09-20T01:21:49.538Z,16.23
2018-09-20T01:24:53.873Z,18.00
2018-09-20T01:27:58.363Z,16.57
2018-09-20T01:31:02.707Z,15.57
2018-09-20T01:34:07.054Z,16.47
2018-09-20T01:37:11.482Z,16.40
2018-09-20T01:40:15.726Z,16.10
2018-09-20T01:43:20.363Z,16.83
2018-09-20T01:46:24.712Z,15.37
2018-09-20T01:49:28.712Z,17.37
2018-09-20T01:52:33.072Z,16.93
2018-09-20T01:55:37.501Z,15.90
2018-09-20T01:58:41.752Z,17.13
2018-09-20T02:01:45.919Z,16.60
2018-09-20T02:04:49.840Z,18.60
2018-09-20T02:07:53.733Z,16.87
2018-09-20T02:10:57.875Z,18.00
2018-09-20T02:14:02.358Z,18.00
2018-09-20T02:17:06.683Z,17.13
2018-09-20T02:20:10.950Z,16.27
2018-09-20T02:23:15.368Z,16.53
2018-09-20T02:26:19.680Z,14.47
2018-09-20T02:29:24.130Z,15.73
2018-09-20T02:32:35.025Z,15.87
2018-09-20T02:35:39.438Z,15.23
2018-09-20T02:38:43.775Z,16.13
2018-09-20T02:41:48.197Z,16.63
2018-09-20T02:44:52.358Z,15.77
2018-09-20T02:47:56.489Z,17.73
2018-09-20T02:51:00.814Z,17.50
2018-09-20T02:54:05.176Z,16.53
2018-09-20T02:57:09.470Z,16.20
2018-09-20T03:00:13.868Z,15.30
2018-09-20T03:03:18.140Z,15.73
2018-09-20T03:06:22.783Z,17.30
2018-09-20T03:09:27.097Z,16.47
2018-09-20T03:12:31.328Z,14.97
2018-09-20T03:15:35.937Z,15.60
2018-09-20T03:18:40.278Z,16.07
2018-09-20T03:21:44.609Z,16.60
2018-09-20T03:24:48.780Z,15.03
2018-09-20T03:27:53.050Z,14.70
2018-09-20T03:30:57.346Z,16.50
2018-09-20T03:34:01.590Z,17.47
2018-09-20T03:37:06.042Z,16.90
2018-09-20T03:40:10.322Z,15.60
2018-09-20T03:43:14.651Z,15.23
2018-09-20T03:46:18.971Z,15.93
2018-09-20T03:49:23.285Z,15.33
2018-09-20T03:52:27.627Z,17.30
2018-09-20T03:55:32.034Z,16.10
2018-09-20T03:58:36.313Z,15.67
2018-09-20T04:01:40.542Z,16.93
2018-09-20T04:04:44.750Z,16.13
2018-09-20T04:07:48.909Z,17.70
2018-09-20T04:10:53.189Z,16.77
2018-09-20T04:13:57.462Z,16.27
2018-09-20T04:17:01.715Z,15.60
2018-09-20T04:20:06.598Z,16.63
2018-09-20T04:23:11.062Z,16.70
2018-09-20T04:26:15.434Z,18.37
2018-09-20T04:29:19.887Z,15.17
2018-09-20T04:32:24.207Z,17.23
2018-09-20T04:35:28.529Z,16.50
2018-09-20T04:38:32.894Z,16.50
2018-09-20T04:41:37.386Z,16.17
2018-09-20T04:44:41.726Z,18.23
2018-09-20T04:47:46.137Z,15.07
2018-09-20T04:50:50.756Z,16.80
2018-09-20T04:53:54.883Z,16.30
2018-09-20T04:56:59.090Z,16.80
2018-09-20T05:00:03.506Z,15.67
2018-09-20T05:03:07.644Z,15.87
2018-09-20T05:06:12.487Z,15.83
2018-09-20T05:09:16.809Z,16.50
2018-09-20T05:12:21.075Z,16.10
2018-09-20T05:15:25.221Z,16.57
2018-09-20T05:18:29.648Z,15.63
2018-09-20T05:21:34.005Z,15.97
2018-09-20T05:24:38.309Z,15.10
2018-09-20T05:27:42.540Z,16.50
2018-09-20T05:30:46.385Z,15.57
2018-09-20T05:33:50.393Z,16.10
2018-09-20T05:36:54.340Z,17.07
2018-09-20T05:39:58.589Z,15.83
2018-09-20T05:43:03.647Z,15.17
2018-09-20T05:46:08.062Z,17.97
2018-09-20T05:49:12.741Z,16.70
2018-09-20T05:52:17.005Z,14.47
2018-09-20T05:55:21.318Z,16.60
2018-09-20T05:58:25.601Z,16.63
2018-09-20T06:01:29.745Z,17.07
2018-09-20T06:04:33.985Z,16.53
2018-09-20T06:07:38.418Z,14.57
2018-09-20T06:10:42.631Z,17.70
2018-09-20T06:13:47.094Z,15.37
2018-09-20T06:16:51.415Z,16.17
2018-09-20T06:19:55.931Z,15.77
2018-09-20T06:23:00.165Z,14.83
2018-09-20T06:26:04.450Z,15.17
2018-09-20T06:29:08.795Z,14.70
2018-09-20T06:32:12.993Z,16.20
2018-09-20T06:35:17.245Z,13.63
2018-09-20T06:38:21.537Z,13.13
2018-09-20T06:41:26.001Z,11.90
2018-09-20T06:44:30.484Z,11.77
2018-09-20T06:47:34.909Z,11.50
2018-09-20T06:50:39.298Z,11.83
2018-09-20T06:53:43.767Z,10.97
2018-09-20T06:56:47.851Z,11.10
2018-09-20T06:59:52.618Z,11.07
2018-09-20T07:02:56.991Z,11.00
2018-09-20T07:06:01.538Z,10.83
2018-09-20T07:09:09.969Z,10.90
2018-09-20T07:12:14.383Z,10.70
2018-09-20T07:15:18.601Z,10.17
2018-09-20T07:18:22.907Z,10.30
2018-09-20T07:21:27.190Z,10.10
2018-09-20T07:24:32.021Z,10.47
2018-09-20T07:27:36.340Z,9.27
2018-09-20T07:30:40.598Z,10.90
2018-09-20T07:33:44.765Z,9.60
2018-09-20T07:36:49.170Z,9.80
2018-09-20T07:39:53.475Z,9.05
2018-09-20T07:42:58.438Z,9.65
2018-09-20T07:46:02.548Z,9.78
2018-09-20T07:49:06.782Z,8.63
2018-09-20T07:52:11.204Z,9.98
2018-09-20T07:55:15.404Z,9.25
2018-09-20T07:58:19.860Z,7.57
2018-09-20T08:01:24.305Z,9.10
2018-09-20T08:04:28.654Z,8.58
2018-09-20T08:07:33.020Z,9.05
2018-09-20T08:10:37.326Z,10.72
2018-09-20T08:13:41.421Z,9.45
2018-09-20T08:16:45.821Z,8.70
2018-09-20T08:19:50.050Z,9.40
2018-09-20T08:22:54.459Z,8.23
2018-09-20T08:25:58.582Z,9.40
2018-09-20T08:29:02.873Z,9.18
2018-09-20T08:32:07.421Z,8.50
2018-09-20T08:35:11.625Z,9.70
2018-09-20T08:38:16.042Z,8.63
2018-09-20T08:41:20.244Z,10.43
2018-09-20T08:44:25.252Z,8.73
2018-09-20T08:47:29.704Z,8.80
2018-09-20T08:50:34.197Z,9.00
2018-09-20T08:53:38.274Z,8.18
2018-09-20T08:56:42.502Z,8.23
2018-09-20T08:59:46.804Z,9.00
2018-09-20T09:02:51.165Z,8.43
2018-09-20T09:05:55.024Z,9.15
2018-09-20T09:08:59.672Z,9.20
2018-09-20T09:12:03.820Z,9.48
2018-09-20T09:15:08.386Z,9.18
2018-09-20T09:18:12.679Z,9.23
2018-09-20T09:21:16.730Z,9.23
2018-09-20T09:24:21.091Z,9.40
2018-09-20T09:27:25.227Z,9.23
2018-09-20T09:30:29.464Z,8.50
2018-09-20T09:33:33.768Z,8.35
2018-09-20T09:36:37.644Z,8.50
2018-09-20T09:39:41.543Z,9.70
2018-09-20T09:42:45.353Z,8.40
2018-09-20T09:45:49.370Z,9.80
2018-09-20T09:48:53.297Z,8.67
2018-09-20T09:51:57.138Z,7.72
2018-09-20T09:55:01.042Z,9.08
2018-09-20T09:58:05.237Z,9.03
2018-09-20T10:01:09.698Z,7.58
2018-09-20T10:04:13.991Z,7.10
2018-09-20T10:07:18.302Z,7.08
2018-09-20T10:10:22.180Z,7.13
2018-09-20T10:13:26.667Z,8.83
2018-09-20T10:16:30.715Z,6.67
2018-09-20T10:19:34.990Z,8.03
2018-09-20T10:22:39.340Z,7.42
2018-09-20T10:25:43.714Z,8.00
2018-09-20T10:28:48.211Z,6.95
2018-09-20T10:31:52.415Z,7.65
2018-09-20T10:34:56.321Z,7.25
2018-09-20T10:38:00.210Z,8.18
2018-09-20T10:41:04.137Z,7.10
2018-09-20T10:44:08.175Z,7.12
2018-09-20T10:47:12.420Z,7.60
2018-09-20T10:50:16.705Z,8.30
2018-09-20T10:53:20.941Z,8.05
2018-09-20T10:56:25.332Z,7.78
2018-09-20T10:59:29.979Z,8.70
2018-09-20T11:02:34.225Z,8.75
2018-09-20T11:05:38.279Z,7.95
2018-09-20T11:08:42.712Z,8.43
2018-09-20T11:11:47.025Z,9.00
2018-09-20T11:14:51.948Z,9.70
2018-09-20T11:17:56.429Z,9.35
2018-09-20T11:21:01.001Z,9.88
2018-09-20T11:24:05.571Z,9.25
2018-09-20T11:27:09.570Z,8.63
2018-09-20T11:30:13.857Z,9.53
2018-09-20T11:33:17.789Z,9.08
2018-09-20T11:36:22.296Z,8.95
2018-09-20T11:39:26.657Z,9.55
2018-09-20T11:42:31.016Z,7.72
2018-09-20T11:45:35.312Z,8.23
2018-09-20T11:48:39.401Z,8.85
2018-09-20T11:51:43.688Z,8.45
2018-09-20T11:54:47.549Z,9.15
2018-09-20T11:57:52.002Z,9.05
2018-09-20T12:00:56.374Z,7.87
2018-09-20T12:04:00.582Z,9.28
2018-09-20T12:07:05.081Z,9.25
2018-09-20T12:10:09.277Z,9.05
2018-09-20T12:13:14.429Z,10.10
2018-09-20T12:16:19.045Z,9.25
2018-09-20T12:19:23.342Z,9.70
2018-09-20T12:22:27.430Z,10.67
2018-09-20T12:25:31.782Z,10.50
2018-09-20T12:28:35.813Z,10.13
2018-09-20T12:31:40.016Z,9.03
2018-09-20T12:34:44.378Z,9.60
2018-09-20T12:37:48.836Z,9.65
2018-09-20T12:40:53.214Z,9.40
2018-09-20T12:43:57.488Z,8.45
2018-09-20T12:47:01.791Z,9.53
2018-09-20T12:50:06.339Z,10.10
2018-09-20T12:53:10.698Z,9.68
2018-09-20T12:56:14.628Z,9.63
2018-09-20T12:59:18.925Z,9.70
2018-09-20T13:02:23.438Z,9.78
2018-09-20T13:05:27.937Z,9.63
2018-09-20T13:08:32.122Z,9.08
2018-09-20T13:11:36.549Z,9.55
2018-09-20T13:14:40.501Z,10.23
2018-09-20T13:17:44.839Z,9.13
2018-09-20T13:20:49.146Z,9.00
2018-09-20T13:23:53.490Z,9.90
2018-09-20T13:26:57.784Z,11.77
2018-09-20T13:30:02.030Z,9.27
2018-09-20T13:33:06.057Z,9.83
2018-09-20T13:36:10.048Z,12.07
2018-09-20T13:39:14.026Z,9.90
2018-09-20T13:42:18.399Z,10.63
2018-09-20T13:45:22.757Z,9.90
2018-09-20T13:48:27.653Z,8.90
2018-09-20T13:51:32.347Z,9.20
2018-09-20T13:54:36.742Z,10.67
2018-09-20T13:57:41.029Z,10.27
2018-09-20T14:00:45.338Z,10.67
2018-09-20T14:03:49.745Z,9.70
2018-09-20T14:06:54.335Z,10.07
2018-09-20T14:09:58.529Z,9.67
2018-09-20T14:13:03.100Z,11.00
2018-09-20T14:16:07.898Z,10.53
2018-09-20T14:19:12.426Z,10.57
2018-09-20T14:22:16.868Z,10.60
2018-09-20T14:25:21.346Z,8.97
2018-09-20T14:28:25.583Z,10.70
2018-09-20T14:31:29.838Z,10.70
2018-09-20T14:34:34.910Z,8.40
2018-09-20T14:37:39.189Z,9.77
2018-09-20T14:40:43.406Z,9.90
2018-09-20T14:43:47.871Z,9.60
2018-09-20T14:46:52.177Z,10.97
2018-09-20T14:49:56.521Z,10.20
2018-09-20T14:53:00.728Z,9.27
2018-09-20T14:56:05.284Z,9.27
2018-09-20T14:59:09.337Z,9.70
2018-09-20T15:02:13.876Z,9.30
2018-09-20T15:05:17.786Z,10.10
2018-09-20T15:08:23.391Z,9.50
2018-09-20T15:11:27.711Z,9.30
2018-09-20T15:14:32.131Z,9.70
2018-09-20T15:17:36.229Z,11.27
2018-09-20T15:20:40.445Z,19.73
2018-09-20T15:23:44.788Z,10.23
2018-09-20T15:26:49.050Z,9.33
2018-09-20T15:29:52.991Z,9.80
2018-09-20T15:32:57.293Z,10.00
2018-09-20T15:36:01.546Z,11.03
2018-09-20T15:39:08.778Z,10.10
2018-09-20T15:42:12.977Z,10.00
2018-09-20T15:45:17.265Z,9.73
2018-09-20T15:48:21.717Z,10.17
2018-09-20T15:51:25.708Z,10.70
2018-09-20T15:54:29.958Z,10.97
2018-09-20T15:57:34.099Z,10.67
2018-09-20T16:00:38.030Z,9.93
2018-09-20T16:03:41.931Z,11.83
2018-09-20T16:06:45.830Z,10.63
2018-09-20T16:09:50.817Z,9.87
2018-09-20T16:12:54.797Z,9.83
2018-09-20T16:15:59.205Z,10.50
2018-09-20T16:19:03.331Z,11.03
2018-09-20T16:22:07.485Z,12.47
2018-09-20T16:25:11.805Z,12.50
2018-09-20T16:28:25.009Z,11.13
2018-09-20T16:31:53.724Z,11.27
2018-09-20T16:35:10.844Z,13.27
2018-09-20T16:38:23.094Z,12.23
2018-09-20T16:41:33.181Z,12.63
2018-09-20T16:44:37.522Z,12.00
2018-09-20T16:47:41.783Z,13.03
2018-09-20T16:50:46.186Z,11.87
2018-09-20T16:53:50.645Z,13.93
2018-09-20T16:56:54.860Z,12.87
2018-09-20T16:59:59.255Z,13.77
2018-09-20T17:03:03.505Z,13.53
2018-09-20T17:06:07.659Z,12.10
2018-09-20T17:09:12.021Z,13.03
2018-09-20T17:12:16.400Z,14.80
2018-09-20T17:15:20.463Z,13.53
2018-09-20T17:18:24.946Z,13.90
2018-09-20T17:21:29.294Z,11.70
2018-09-20T17:24:33.493Z,10.87
2018-09-20T17:27:38.000Z,12.37
2018-09-20T17:30:42.331Z,11.67
2018-09-20T17:33:49.754Z,11.97
2018-09-20T17:36:54.657Z,12.13
2018-09-20T17:40:00.311Z,12.47
2018-09-20T17:43:07.522Z,11.10
2018-09-20T17:46:12.115Z,12.10
2018-09-20T17:49:16.418Z,12.80
2018-09-20T17:52:22.513Z,12.43
2018-09-20T17:55:27.087Z,14.27
2018-09-20T17:58:31.653Z,13.30
2018-09-20T18:01:35.700Z,12.80
2018-09-20T18:04:39.817Z,12.93
2018-09-20T18:07:43.774Z,14.70
2018-09-20T18:10:47.735Z,14.40
2018-09-20T18:13:51.867Z,13.27
2018-09-20T18:16:55.874Z,13.50
2018-09-20T18:19:59.833Z,14.10
2018-09-20T18:23:04.093Z,14.70
2018-09-20T18:26:08.063Z,13.23
2018-09-20T18:29:11.976Z,13.63
2018-09-20T18:32:15.951Z,14.70
2018-09-20T18:35:19.995Z,13.93
2018-09-20T18:38:24.141Z,14.47
2018-09-20T18:41:28.454Z,14.80
2018-09-20T18:44:32.938Z,15.97
2018-09-20T18:47:37.233Z,15.90
2018-09-20T18:50:41.498Z,14.93
2018-09-20T18:53:45.666Z,14.97
2018-09-20T18:56:49.986Z,15.20
2018-09-20T18:59:54.424Z,14.90
2018-09-20T19:02:58.739Z,15.50
2018-09-20T19:06:31.229Z,15.57
2018-09-20T19:09:36.124Z,15.70
2018-09-20T19:12:40.389Z,14.53
2018-09-20T19:15:44.841Z,14.30
2018-09-20T19:18:49.069Z,15.93
2018-09-20T19:21:53.255Z,15.63
2018-09-20T19:24:57.592Z,14.70
2018-09-20T19:28:01.778Z,14.27
2018-09-20T19:31:06.421Z,15.40
2018-09-20T19:34:10.793Z,14.77
2018-09-20T19:37:14.754Z,14.80
2018-09-20T19:40:19.069Z,16.00
2018-09-20T19:43:30.081Z,16.20
2018-09-20T19:46:34.463Z,16.43
2018-09-20T19:49:38.687Z,15.97
2018-09-20T19:52:42.910Z,14.87
2018-09-20T19:55:47.251Z,15.73
2018-09-20T19:58:51.677Z,15.90
2018-09-20T20:01:55.807Z,14.90
2018-09-20T20:04:59.971Z,15.97
2018-09-20T20:08:04.550Z,16.30
2018-09-20T20:11:08.844Z,15.70
2018-09-20T20:14:13.179Z,16.90
2018-09-20T20:17:17.514Z,16.47
2018-09-20T20:20:21.992Z,16.83
2018-09-20T20:23:25.896Z,16.73
2018-09-20T20:26:30.264Z,16.43
2018-09-20T20:29:34.574Z,16.33
2018-09-20T20:32:38.921Z,16.17
2018-09-20T20:35:43.334Z,15.13
2018-09-20T20:38:48.077Z,16.13
2018-09-20T20:41:52.603Z,15.33
2018-09-20T20:44:57.138Z,17.80
2018-09-20T20:48:01.666Z,16.43
2018-09-20T20:51:06.038Z,14.97
2018-09-20T20:54:10.556Z,14.50
2018-09-20T20:57:14.851Z,15.67
2018-09-20T21:00:19.233Z,15.07
2018-09-20T21:03:23.523Z,16.63
2018-09-20T21:06:27.782Z,16.30
2018-09-20T21:09:31.941Z,15.60
2018-09-20T21:12:36.290Z,14.63
2018-09-20T21:15:40.611Z,14.90
2018-09-20T21:18:45.113Z,15.83
2018-09-20T21:21:49.680Z,15.30
2018-09-20T21:24:53.925Z,15.87
2018-09-20T21:27:58.191Z,15.30
2018-09-20T21:31:02.431Z,17.17
2018-09-20T21:34:07.075Z,16.70
2018-09-20T21:37:11.726Z,16.27
2018-09-20T21:40:16.170Z,15.23
2018-09-20T21:43:20.325Z,14.80
2018-09-20T21:46:24.768Z,17.57
2018-09-20T21:49:28.782Z,15.87
2018-09-20T21:52:33.086Z,16.30
2018-09-20T21:55:37.426Z,16.50
2018-09-20T21:58:41.943Z,15.90
2018-09-20T22:01:51.146Z,16.80
2018-09-20T22:04:55.384Z,17.27
2018-09-20T22:07:59.651Z,15.20
2018-09-20T22:11:04.138Z,16.53
2018-09-20T22:14:08.147Z,16.50
2018-09-20T22:17:12.523Z,17.60
2018-09-20T22:20:17.027Z,15.40
2018-09-20T22:23:21.363Z,15.43
2018-09-20T22:26:25.368Z,16.00
2018-09-20T22:29:29.258Z,16.23
2018-09-20T22:32:33.783Z,16.27
2018-09-20T22:35:37.976Z,16.60
2018-09-20T22:38:42.251Z,15.60
2018-09-20T22:41:46.585Z,14.27
2018-09-20T22:44:51.243Z,17.13
2018-09-20T22:47:55.753Z,16.20
2018-09-20T22:51:00.114Z,15.10
2018-09-20T22:54:04.409Z,14.93
2018-09-20T22:57:08.744Z,15.27
2018-09-20T23:00:12.891Z,16.23
2018-09-20T23:03:17.193Z,16.60
2018-09-20T23:06:21.474Z,15.67
2018-09-20T23:09:25.748Z,16.03
2018-09-20T23:12:29.622Z,15.63
2018-09-20T23:15:34.090Z,15.90
2018-09-20T23:18:38.421Z,16.77
2018-09-20T23:21:42.908Z,15.73
2018-09-20T23:24:47.192Z,16.83
2018-09-20T23:27:51.674Z,15.50
2018-09-20T23:30:55.936Z,15.30
2018-09-20T23:34:00.234Z,18.13
2018-09-20T23:37:04.396Z,15.10
2018-09-20T23:40:08.619Z,17.53
2018-09-20T23:43:12.835Z,15.37
2018-09-20T23:46:17.161Z,16.20
2018-09-20T23:49:21.405Z,15.23
2018-09-20T23:52:25.725Z,16.50
2018-09-20T23:55:30.047Z,15.07
2018-09-20T23:58:34.641Z,15.60
